sensor_id;sensor_type;location;lat;lon;timestamp;P1;durP1;ratioP1;P2;durP2;ratioP2
76023;SDS011;64719;52.124;6.226;2023-06-22T00:02:00;10.63;;;5.78;;
76023;SDS011;64719;52.124;6.226;2023-06-22T00:04:27;8.07;;;5.40;;
76023;SDS011;64719;52.124;6.226;2023-06-22T00:06:53;10.80;;;6.75;;
76023;SDS011;64719;52.124;6.226;2023-06-22T00:09:20;8.82;;;6.10;;
76023;SDS011;64719;52.124;6.226;2023-06-22T00:11:46;16.52;;;6.68;;
76023;SDS011;64719;52.124;6.226;2023-06-22T00:14:13;9.50;;;6.57;;
76023;SDS011;64719;52.124;6.226;2023-06-22T00:16:41;9.85;;;6.68;;
76023;SDS011;64719;52.124;6.226;2023-06-22T00:19:07;11.48;;;6.53;;
76023;SDS011;64719;52.124;6.226;2023-06-22T00:21:36;10.07;;;7.00;;
76023;SDS011;64719;52.124;6.226;2023-06-22T00:24:04;10.10;;;6.97;;
76023;SDS011;64719;52.124;6.226;2023-06-22T00:26:31;11.15;;;7.72;;
76023;SDS011;64719;52.124;6.226;2023-06-22T00:28:57;10.45;;;6.88;;
76023;SDS011;64719;52.124;6.226;2023-06-22T00:31:24;10.55;;;7.57;;
76023;SDS011;64719;52.124;6.226;2023-06-22T00:33:52;11.85;;;7.88;;
76023;SDS011;64719;52.124;6.226;2023-06-22T00:38:45;13.50;;;7.80;;
76023;SDS011;64719;52.124;6.226;2023-06-22T00:41:11;11.85;;;7.45;;
76023;SDS011;64719;52.124;6.226;2023-06-22T00:43:38;13.15;;;8.35;;
76023;SDS011;64719;52.124;6.226;2023-06-22T00:46:05;11.45;;;7.43;;
76023;SDS011;64719;52.124;6.226;2023-06-22T00:48:32;11.77;;;7.60;;
76023;SDS011;64719;52.124;6.226;2023-06-22T00:51:00;14.23;;;7.90;;
76023;SDS011;64719;52.124;6.226;2023-06-22T00:53:27;11.25;;;7.47;;
76023;SDS011;64719;52.124;6.226;2023-06-22T00:55:53;11.73;;;8.27;;
76023;SDS011;64719;52.124;6.226;2023-06-22T00:58:25;12.00;;;7.47;;
76023;SDS011;64719;52.124;6.226;2023-06-22T01:00:51;10.35;;;7.15;;
76023;SDS011;64719;52.124;6.226;2023-06-22T01:03:18;10.75;;;7.22;;
76023;SDS011;64719;52.124;6.226;2023-06-22T01:05:45;12.57;;;8.00;;
76023;SDS011;64719;52.124;6.226;2023-06-22T01:08:21;12.23;;;7.38;;
76023;SDS011;64719;52.124;6.226;2023-06-22T01:10:57;13.25;;;8.25;;
76023;SDS011;64719;52.124;6.226;2023-06-22T01:13:32;12.93;;;8.40;;
76023;SDS011;64719;52.124;6.226;2023-06-22T01:16:05;13.93;;;7.85;;
76023;SDS011;64719;52.124;6.226;2023-06-22T01:18:35;13.40;;;8.50;;
76023;SDS011;64719;52.124;6.226;2023-06-22T01:21:03;12.43;;;8.05;;
76023;SDS011;64719;52.124;6.226;2023-06-22T01:23:40;13.65;;;8.70;;
76023;SDS011;64719;52.124;6.226;2023-06-22T01:26:18;15.23;;;8.82;;
76023;SDS011;64719;52.124;6.226;2023-06-22T01:28:54;11.73;;;8.38;;
76023;SDS011;64719;52.124;6.226;2023-06-22T01:31:23;12.98;;;8.00;;
76023;SDS011;64719;52.124;6.226;2023-06-22T01:33:52;10.93;;;7.90;;
76023;SDS011;64719;52.124;6.226;2023-06-22T01:36:21;12.98;;;8.70;;
76023;SDS011;64719;52.124;6.226;2023-06-22T01:38:48;13.20;;;8.27;;
76023;SDS011;64719;52.124;6.226;2023-06-22T01:41:15;13.93;;;8.90;;
76023;SDS011;64719;52.124;6.226;2023-06-22T01:46:11;13.05;;;8.15;;
76023;SDS011;64719;52.124;6.226;2023-06-22T01:48:38;13.50;;;8.50;;
76023;SDS011;64719;52.124;6.226;2023-06-22T01:51:06;12.88;;;8.68;;
76023;SDS011;64719;52.124;6.226;2023-06-22T01:53:32;12.85;;;8.45;;
76023;SDS011;64719;52.124;6.226;2023-06-22T01:55:59;13.57;;;8.85;;
76023;SDS011;64719;52.124;6.226;2023-06-22T01:58:26;13.40;;;9.20;;
76023;SDS011;64719;52.124;6.226;2023-06-22T02:00:56;14.25;;;8.60;;
76023;SDS011;64719;52.124;6.226;2023-06-22T02:03:28;13.07;;;9.00;;
76023;SDS011;64719;52.124;6.226;2023-06-22T02:05:58;12.82;;;8.82;;
76023;SDS011;64719;52.124;6.226;2023-06-22T02:08:29;12.90;;;9.18;;
76023;SDS011;64719;52.124;6.226;2023-06-22T02:10:58;13.45;;;9.10;;
76023;SDS011;64719;52.124;6.226;2023-06-22T02:15:53;12.32;;;9.43;;
76023;SDS011;64719;52.124;6.226;2023-06-22T02:18:20;13.13;;;9.13;;
76023;SDS011;64719;52.124;6.226;2023-06-22T02:20:48;14.70;;;9.82;;
76023;SDS011;64719;52.124;6.226;2023-06-22T02:23:15;15.73;;;9.23;;
76023;SDS011;64719;52.124;6.226;2023-06-22T02:25:41;13.77;;;9.73;;
76023;SDS011;64719;52.124;6.226;2023-06-22T02:28:09;16.77;;;10.07;;
76023;SDS011;64719;52.124;6.226;2023-06-22T02:30:36;14.10;;;9.38;;
76023;SDS011;64719;52.124;6.226;2023-06-22T02:33:03;14.75;;;10.20;;
76023;SDS011;64719;52.124;6.226;2023-06-22T02:35:30;14.82;;;9.20;;
76023;SDS011;64719;52.124;6.226;2023-06-22T02:37:58;18.83;;;11.02;;
76023;SDS011;64719;52.124;6.226;2023-06-22T02:40:25;15.93;;;10.15;;
76023;SDS011;64719;52.124;6.226;2023-06-22T02:42:52;17.83;;;10.13;;
76023;SDS011;64719;52.124;6.226;2023-06-22T02:45:19;14.13;;;9.93;;
76023;SDS011;64719;52.124;6.226;2023-06-22T02:47:45;17.45;;;11.13;;
76023;SDS011;64719;52.124;6.226;2023-06-22T02:50:13;21.13;;;11.38;;
76023;SDS011;64719;52.124;6.226;2023-06-22T02:52:39;16.13;;;10.68;;
76023;SDS011;64719;52.124;6.226;2023-06-22T02:55:08;16.52;;;10.13;;
76023;SDS011;64719;52.124;6.226;2023-06-22T02:57:35;17.58;;;11.10;;
76023;SDS011;64719;52.124;6.226;2023-06-22T03:00:02;20.38;;;11.38;;
76023;SDS011;64719;52.124;6.226;2023-06-22T03:02:38;16.77;;;11.85;;
76023;SDS011;64719;52.124;6.226;2023-06-22T03:05:05;17.85;;;12.32;;
76023;SDS011;64719;52.124;6.226;2023-06-22T03:07:38;18.58;;;12.30;;
76023;SDS011;64719;52.124;6.226;2023-06-22T03:10:06;18.60;;;11.80;;
76023;SDS011;64719;52.124;6.226;2023-06-22T03:12:35;18.08;;;13.07;;
76023;SDS011;64719;52.124;6.226;2023-06-22T03:15:02;20.05;;;12.85;;
76023;SDS011;64719;52.124;6.226;2023-06-22T03:17:29;21.23;;;13.07;;
76023;SDS011;64719;52.124;6.226;2023-06-22T03:19:55;20.10;;;13.52;;
76023;SDS011;64719;52.124;6.226;2023-06-22T03:22:22;22.42;;;14.45;;
76023;SDS011;64719;52.124;6.226;2023-06-22T03:24:49;21.10;;;13.40;;
76023;SDS011;64719;52.124;6.226;2023-06-22T03:27:17;21.52;;;14.30;;
76023;SDS011;64719;52.124;6.226;2023-06-22T03:29:43;19.38;;;14.20;;
76023;SDS011;64719;52.124;6.226;2023-06-22T03:32:10;24.73;;;15.70;;
76023;SDS011;64719;52.124;6.226;2023-06-22T03:34:37;25.13;;;16.08;;
76023;SDS011;64719;52.124;6.226;2023-06-22T03:37:04;26.00;;;17.00;;
76023;SDS011;64719;52.124;6.226;2023-06-22T03:39:31;26.35;;;17.40;;
76023;SDS011;64719;52.124;6.226;2023-06-22T03:41:57;28.95;;;17.52;;
76023;SDS011;64719;52.124;6.226;2023-06-22T03:44:25;30.10;;;18.92;;
76023;SDS011;64719;52.124;6.226;2023-06-22T03:46:52;34.20;;;20.50;;
76023;SDS011;64719;52.124;6.226;2023-06-22T03:49:18;31.20;;;19.92;;
76023;SDS011;64719;52.124;6.226;2023-06-22T03:51:45;31.17;;;19.65;;
76023;SDS011;64719;52.124;6.226;2023-06-22T03:54:12;32.58;;;20.15;;
76023;SDS011;64719;52.124;6.226;2023-06-22T03:56:38;32.63;;;21.45;;
76023;SDS011;64719;52.124;6.226;2023-06-22T03:59:05;37.28;;;22.80;;
76023;SDS011;64719;52.124;6.226;2023-06-22T04:01:33;38.20;;;24.80;;
76023;SDS011;64719;52.124;6.226;2023-06-22T04:03:59;38.45;;;24.25;;
76023;SDS011;64719;52.124;6.226;2023-06-22T04:06:26;42.22;;;25.10;;
76023;SDS011;64719;52.124;6.226;2023-06-22T04:08:52;43.33;;;25.13;;
76023;SDS011;64719;52.124;6.226;2023-06-22T04:11:19;43.10;;;25.55;;
76023;SDS011;64719;52.124;6.226;2023-06-22T04:13:45;41.17;;;27.23;;
76023;SDS011;64719;52.124;6.226;2023-06-22T04:21:08;37.67;;;24.35;;
76023;SDS011;64719;52.124;6.226;2023-06-22T04:23:34;41.30;;;27.30;;
76023;SDS011;64719;52.124;6.226;2023-06-22T04:26:01;39.58;;;26.90;;
76023;SDS011;64719;52.124;6.226;2023-06-22T04:28:27;36.58;;;24.25;;
76023;SDS011;64719;52.124;6.226;2023-06-22T04:30:54;39.97;;;24.63;;
76023;SDS011;64719;52.124;6.226;2023-06-22T04:33:23;37.05;;;24.45;;
76023;SDS011;64719;52.124;6.226;2023-06-22T04:35:51;31.80;;;22.27;;
76023;SDS011;64719;52.124;6.226;2023-06-22T04:38:17;32.55;;;21.52;;
76023;SDS011;64719;52.124;6.226;2023-06-22T04:40:46;35.60;;;22.30;;
76023;SDS011;64719;52.124;6.226;2023-06-22T04:43:13;27.58;;;20.55;;
76023;SDS011;64719;52.124;6.226;2023-06-22T04:45:39;29.42;;;21.52;;
76023;SDS011;64719;52.124;6.226;2023-06-22T04:48:06;33.92;;;20.88;;
76023;SDS011;64719;52.124;6.226;2023-06-22T04:50:33;25.33;;;20.15;;
76023;SDS011;64719;52.124;6.226;2023-06-22T04:53:01;24.00;;;18.75;;
76023;SDS011;64719;52.124;6.226;2023-06-22T04:55:30;27.80;;;19.70;;
76023;SDS011;64719;52.124;6.226;2023-06-22T04:57:57;27.42;;;20.30;;
76023;SDS011;64719;52.124;6.226;2023-06-22T05:00:29;23.50;;;19.25;;
76023;SDS011;64719;52.124;6.226;2023-06-22T05:02:57;29.25;;;20.73;;
76023;SDS011;64719;52.124;6.226;2023-06-22T05:05:24;27.70;;;21.63;;
76023;SDS011;64719;52.124;6.226;2023-06-22T05:07:52;26.70;;;21.45;;
76023;SDS011;64719;52.124;6.226;2023-06-22T05:10:21;29.55;;;21.25;;
76023;SDS011;64719;52.124;6.226;2023-06-22T05:12:48;30.80;;;21.05;;
76023;SDS011;64719;52.124;6.226;2023-06-22T05:15:14;28.08;;;22.38;;
76023;SDS011;64719;52.124;6.226;2023-06-22T05:17:41;29.23;;;21.42;;
76023;SDS011;64719;52.124;6.226;2023-06-22T05:20:08;27.25;;;20.00;;
76023;SDS011;64719;52.124;6.226;2023-06-22T05:22:36;29.13;;;20.33;;
76023;SDS011;64719;52.124;6.226;2023-06-22T05:25:03;25.02;;;19.35;;
76023;SDS011;64719;52.124;6.226;2023-06-22T05:27:32;25.05;;;19.95;;
76023;SDS011;64719;52.124;6.226;2023-06-22T05:29:59;24.35;;;19.95;;
76023;SDS011;64719;52.124;6.226;2023-06-22T05:32:25;24.65;;;19.95;;
76023;SDS011;64719;52.124;6.226;2023-06-22T05:34:52;25.63;;;19.80;;
76023;SDS011;64719;52.124;6.226;2023-06-22T05:37:19;25.88;;;19.42;;
76023;SDS011;64719;52.124;6.226;2023-06-22T05:39:45;28.23;;;21.40;;
76023;SDS011;64719;52.124;6.226;2023-06-22T05:42:12;24.83;;;19.40;;
76023;SDS011;64719;52.124;6.226;2023-06-22T05:44:40;24.83;;;19.95;;
76023;SDS011;64719;52.124;6.226;2023-06-22T05:47:07;27.23;;;19.77;;
76023;SDS011;64719;52.124;6.226;2023-06-22T05:49:33;24.98;;;19.45;;
76023;SDS011;64719;52.124;6.226;2023-06-22T05:52:00;23.45;;;19.80;;
76023;SDS011;64719;52.124;6.226;2023-06-22T05:54:27;23.45;;;19.42;;
76023;SDS011;64719;52.124;6.226;2023-06-22T05:56:53;24.23;;;19.70;;
76023;SDS011;64719;52.124;6.226;2023-06-22T05:59:20;23.85;;;19.73;;
76023;SDS011;64719;52.124;6.226;2023-06-22T06:01:48;26.77;;;20.05;;
76023;SDS011;64719;52.124;6.226;2023-06-22T06:04:16;24.73;;;18.73;;
76023;SDS011;64719;52.124;6.226;2023-06-22T06:06:43;25.10;;;19.80;;
76023;SDS011;64719;52.124;6.226;2023-06-22T06:09:09;26.25;;;18.65;;
76023;SDS011;64719;52.124;6.226;2023-06-22T06:11:36;26.40;;;18.80;;
76023;SDS011;64719;52.124;6.226;2023-06-22T06:14:03;25.98;;;18.90;;
76023;SDS011;64719;52.124;6.226;2023-06-22T06:16:30;22.33;;;16.83;;
76023;SDS011;64719;52.124;6.226;2023-06-22T06:18:57;23.23;;;15.85;;
76023;SDS011;64719;52.124;6.226;2023-06-22T06:21:24;22.10;;;15.98;;
76023;SDS011;64719;52.124;6.226;2023-06-22T06:23:51;20.48;;;15.68;;
76023;SDS011;64719;52.124;6.226;2023-06-22T06:26:18;18.35;;;15.88;;
76023;SDS011;64719;52.124;6.226;2023-06-22T06:28:53;17.10;;;14.63;;
76023;SDS011;64719;52.124;6.226;2023-06-22T06:31:19;21.23;;;14.95;;
76023;SDS011;64719;52.124;6.226;2023-06-22T06:33:46;18.00;;;14.70;;
76023;SDS011;64719;52.124;6.226;2023-06-22T06:36:14;18.60;;;14.48;;
76023;SDS011;64719;52.124;6.226;2023-06-22T06:38:41;15.98;;;14.25;;
76023;SDS011;64719;52.124;6.226;2023-06-22T06:41:08;19.75;;;15.27;;
76023;SDS011;64719;52.124;6.226;2023-06-22T06:43:34;17.88;;;14.32;;
76023;SDS011;64719;52.124;6.226;2023-06-22T06:46:01;17.30;;;13.48;;
76023;SDS011;64719;52.124;6.226;2023-06-22T06:48:28;16.27;;;14.13;;
76023;SDS011;64719;52.124;6.226;2023-06-22T06:50:54;16.42;;;13.07;;
76023;SDS011;64719;52.124;6.226;2023-06-22T06:53:22;16.23;;;13.65;;
76023;SDS011;64719;52.124;6.226;2023-06-22T06:55:49;17.88;;;12.60;;
76023;SDS011;64719;52.124;6.226;2023-06-22T06:58:15;15.52;;;13.20;;
76023;SDS011;64719;52.124;6.226;2023-06-22T07:00:42;15.77;;;12.00;;
76023;SDS011;64719;52.124;6.226;2023-06-22T07:03:09;16.58;;;13.30;;
76023;SDS011;64719;52.124;6.226;2023-06-22T07:05:36;14.05;;;11.63;;
76023;SDS011;64719;52.124;6.226;2023-06-22T07:08:02;12.65;;;11.07;;
76023;SDS011;64719;52.124;6.226;2023-06-22T07:10:30;14.32;;;11.13;;
76023;SDS011;64719;52.124;6.226;2023-06-22T07:12:57;12.52;;;10.00;;
76023;SDS011;64719;52.124;6.226;2023-06-22T07:15:23;14.70;;;10.95;;
76023;SDS011;64719;52.124;6.226;2023-06-22T07:17:50;12.63;;;10.18;;
76023;SDS011;64719;52.124;6.226;2023-06-22T07:20:17;11.20;;;9.50;;
76023;SDS011;64719;52.124;6.226;2023-06-22T07:22:45;11.52;;;9.48;;
76023;SDS011;64719;52.124;6.226;2023-06-22T07:25:11;10.88;;;9.52;;
76023;SDS011;64719;52.124;6.226;2023-06-22T07:27:42;10.50;;;9.35;;
76023;SDS011;64719;52.124;6.226;2023-06-22T07:30:11;11.70;;;10.50;;
76023;SDS011;64719;52.124;6.226;2023-06-22T07:32:39;10.02;;;9.02;;
76023;SDS011;64719;52.124;6.226;2023-06-22T07:35:05;14.80;;;9.90;;
76023;SDS011;64719;52.124;6.226;2023-06-22T07:37:33;12.30;;;10.20;;
76023;SDS011;64719;52.124;6.226;2023-06-22T07:40:00;13.82;;;10.40;;
76023;SDS011;64719;52.124;6.226;2023-06-22T07:42:29;11.82;;;10.23;;
76023;SDS011;64719;52.124;6.226;2023-06-22T07:44:59;11.23;;;9.98;;
76023;SDS011;64719;52.124;6.226;2023-06-22T07:47:27;11.68;;;10.25;;
76023;SDS011;64719;52.124;6.226;2023-06-22T07:49:55;12.52;;;9.98;;
76023;SDS011;64719;52.124;6.226;2023-06-22T07:52:26;11.82;;;9.60;;
76023;SDS011;64719;52.124;6.226;2023-06-22T07:57:19;11.68;;;9.50;;
76023;SDS011;64719;52.124;6.226;2023-06-22T07:59:46;12.00;;;9.90;;
76023;SDS011;64719;52.124;6.226;2023-06-22T08:02:14;9.98;;;8.93;;
76023;SDS011;64719;52.124;6.226;2023-06-22T08:04:41;12.15;;;8.73;;
76023;SDS011;64719;52.124;6.226;2023-06-22T08:07:07;11.45;;;8.93;;
76023;SDS011;64719;52.124;6.226;2023-06-22T08:09:34;10.18;;;9.05;;
76023;SDS011;64719;52.124;6.226;2023-06-22T08:12:02;11.20;;;8.45;;
76023;SDS011;64719;52.124;6.226;2023-06-22T08:14:29;11.10;;;8.45;;
76023;SDS011;64719;52.124;6.226;2023-06-22T08:16:56;10.23;;;8.45;;
76023;SDS011;64719;52.124;6.226;2023-06-22T08:19:24;10.25;;;8.50;;
76023;SDS011;64719;52.124;6.226;2023-06-22T08:21:50;9.50;;;8.07;;
76023;SDS011;64719;52.124;6.226;2023-06-22T08:24:17;9.18;;;8.18;;
76023;SDS011;64719;52.124;6.226;2023-06-22T08:26:43;11.77;;;8.32;;
76023;SDS011;64719;52.124;6.226;2023-06-22T08:29:10;10.65;;;8.88;;
76023;SDS011;64719;52.124;6.226;2023-06-22T08:31:36;9.95;;;8.07;;
76023;SDS011;64719;52.124;6.226;2023-06-22T08:34:03;10.98;;;8.60;;
76023;SDS011;64719;52.124;6.226;2023-06-22T08:36:31;11.25;;;9.18;;
76023;SDS011;64719;52.124;6.226;2023-06-22T08:39:00;9.32;;;8.05;;
76023;SDS011;64719;52.124;6.226;2023-06-22T08:41:27;10.18;;;8.43;;
76023;SDS011;64719;52.124;6.226;2023-06-22T08:43:54;10.02;;;8.77;;
76023;SDS011;64719;52.124;6.226;2023-06-22T08:46:21;10.23;;;8.38;;
76023;SDS011;64719;52.124;6.226;2023-06-22T08:48:55;10.55;;;8.60;;
76023;SDS011;64719;52.124;6.226;2023-06-22T08:51:22;11.50;;;9.07;;
76023;SDS011;64719;52.124;6.226;2023-06-22T08:53:50;9.93;;;8.73;;
76023;SDS011;64719;52.124;6.226;2023-06-22T08:56:17;10.23;;;8.75;;
76023;SDS011;64719;52.124;6.226;2023-06-22T09:01:11;8.85;;;7.60;;
76023;SDS011;64719;52.124;6.226;2023-06-22T09:03:37;11.40;;;8.82;;
76023;SDS011;64719;52.124;6.226;2023-06-22T09:06:04;10.77;;;9.15;;
76023;SDS011;64719;52.124;6.226;2023-06-22T09:08:30;10.52;;;9.43;;
76023;SDS011;64719;52.124;6.226;2023-06-22T09:10:58;10.18;;;8.52;;
76023;SDS011;64719;52.124;6.226;2023-06-22T09:13:24;10.20;;;8.70;;
76023;SDS011;64719;52.124;6.226;2023-06-22T09:15:51;8.40;;;7.60;;
76023;SDS011;64719;52.124;6.226;2023-06-22T09:18:17;8.68;;;7.78;;
76023;SDS011;64719;52.124;6.226;2023-06-22T09:20:44;8.45;;;7.45;;
76023;SDS011;64719;52.124;6.226;2023-06-22T09:25:37;11.13;;;8.68;;
76023;SDS011;64719;52.124;6.226;2023-06-22T09:28:06;9.82;;;8.82;;
76023;SDS011;64719;52.124;6.226;2023-06-22T09:30:33;10.27;;;8.88;;
76023;SDS011;64719;52.124;6.226;2023-06-22T09:32:59;9.93;;;8.02;;
76023;SDS011;64719;52.124;6.226;2023-06-22T09:35:26;8.88;;;7.75;;
76023;SDS011;64719;52.124;6.226;2023-06-22T09:37:52;10.10;;;8.13;;
76023;SDS011;64719;52.124;6.226;2023-06-22T09:40:19;10.20;;;8.82;;
76023;SDS011;64719;52.124;6.226;2023-06-22T09:42:46;10.38;;;8.02;;
76023;SDS011;64719;52.124;6.226;2023-06-22T09:45:13;9.25;;;8.27;;
76023;SDS011;64719;52.124;6.226;2023-06-22T09:47:40;7.97;;;7.10;;
76023;SDS011;64719;52.124;6.226;2023-06-22T09:50:07;9.27;;;8.32;;
76023;SDS011;64719;52.124;6.226;2023-06-22T09:52:34;11.95;;;8.65;;
76023;SDS011;64719;52.124;6.226;2023-06-22T09:55:01;8.98;;;7.72;;
76023;SDS011;64719;52.124;6.226;2023-06-22T09:57:28;10.90;;;7.63;;
76023;SDS011;64719;52.124;6.226;2023-06-22T09:59:55;11.48;;;7.80;;
76023;SDS011;64719;52.124;6.226;2023-06-22T10:02:23;9.55;;;8.15;;
76023;SDS011;64719;52.124;6.226;2023-06-22T10:04:49;11.18;;;8.00;;
76023;SDS011;64719;52.124;6.226;2023-06-22T10:07:16;9.32;;;8.07;;
76023;SDS011;64719;52.124;6.226;2023-06-22T10:09:42;11.45;;;8.70;;
76023;SDS011;64719;52.124;6.226;2023-06-22T10:12:09;11.18;;;7.53;;
76023;SDS011;64719;52.124;6.226;2023-06-22T10:14:35;10.82;;;7.78;;
76023;SDS011;64719;52.124;6.226;2023-06-22T10:17:02;11.63;;;7.50;;
76023;SDS011;64719;52.124;6.226;2023-06-22T10:19:33;10.18;;;7.60;;
76023;SDS011;64719;52.124;6.226;2023-06-22T10:22:02;10.02;;;7.03;;
76023;SDS011;64719;52.124;6.226;2023-06-22T10:24:28;9.93;;;8.20;;
76023;SDS011;64719;52.124;6.226;2023-06-22T10:26:55;10.13;;;8.10;;
76023;SDS011;64719;52.124;6.226;2023-06-22T10:29:21;8.65;;;6.90;;
76023;SDS011;64719;52.124;6.226;2023-06-22T10:31:48;10.02;;;7.65;;
76023;SDS011;64719;52.124;6.226;2023-06-22T10:34:14;9.45;;;7.18;;
76023;SDS011;64719;52.124;6.226;2023-06-22T10:36:42;10.27;;;7.80;;
76023;SDS011;64719;52.124;6.226;2023-06-22T10:39:11;11.65;;;7.60;;
76023;SDS011;64719;52.124;6.226;2023-06-22T10:41:37;10.38;;;7.10;;
76023;SDS011;64719;52.124;6.226;2023-06-22T10:44:04;10.18;;;7.65;;
76023;SDS011;64719;52.124;6.226;2023-06-22T10:46:30;14.45;;;7.38;;
76023;SDS011;64719;52.124;6.226;2023-06-22T10:48:57;8.90;;;7.00;;
76023;SDS011;64719;52.124;6.226;2023-06-22T10:51:24;8.77;;;7.05;;
76023;SDS011;64719;52.124;6.226;2023-06-22T10:53:52;7.57;;;6.63;;
76023;SDS011;64719;52.124;6.226;2023-06-22T10:56:18;7.18;;;6.05;;
76023;SDS011;64719;52.124;6.226;2023-06-22T10:58:45;8.05;;;6.63;;
76023;SDS011;64719;52.124;6.226;2023-06-22T11:01:12;8.18;;;6.32;;
76023;SDS011;64719;52.124;6.226;2023-06-22T11:03:39;6.63;;;5.95;;
76023;SDS011;64719;52.124;6.226;2023-06-22T11:06:05;7.95;;;6.28;;
76023;SDS011;64719;52.124;6.226;2023-06-22T11:08:32;8.75;;;6.30;;
76023;SDS011;64719;52.124;6.226;2023-06-22T11:11:00;7.90;;;5.85;;
76023;SDS011;64719;52.124;6.226;2023-06-22T11:13:26;7.45;;;5.75;;
76023;SDS011;64719;52.124;6.226;2023-06-22T11:15:53;8.73;;;6.28;;
76023;SDS011;64719;52.124;6.226;2023-06-22T11:18:19;8.52;;;5.93;;
76023;SDS011;64719;52.124;6.226;2023-06-22T11:20:48;9.38;;;6.15;;
76023;SDS011;64719;52.124;6.226;2023-06-22T11:23:14;7.45;;;5.90;;
76023;SDS011;64719;52.124;6.226;2023-06-22T11:25:41;7.63;;;6.03;;
76023;SDS011;64719;52.124;6.226;2023-06-22T11:28:09;7.50;;;6.32;;
76023;SDS011;64719;52.124;6.226;2023-06-22T11:30:35;7.72;;;6.30;;
76023;SDS011;64719;52.124;6.226;2023-06-22T11:33:02;7.43;;;6.30;;
76023;SDS011;64719;52.124;6.226;2023-06-22T11:35:28;9.60;;;6.18;;
76023;SDS011;64719;52.124;6.226;2023-06-22T11:37:55;7.38;;;5.97;;
76023;SDS011;64719;52.124;6.226;2023-06-22T11:40:23;8.75;;;6.22;;
76023;SDS011;64719;52.124;6.226;2023-06-22T11:42:49;10.07;;;5.80;;
76023;SDS011;64719;52.124;6.226;2023-06-22T11:45:18;9.23;;;6.68;;
76023;SDS011;64719;52.124;6.226;2023-06-22T11:47:45;8.10;;;6.10;;
76023;SDS011;64719;52.124;6.226;2023-06-22T11:50:12;9.30;;;6.45;;
76023;SDS011;64719;52.124;6.226;2023-06-22T11:52:38;8.57;;;5.85;;
76023;SDS011;64719;52.124;6.226;2023-06-22T11:55:06;6.75;;;6.03;;
76023;SDS011;64719;52.124;6.226;2023-06-22T11:57:33;9.50;;;6.45;;
76023;SDS011;64719;52.124;6.226;2023-06-22T12:00:00;8.60;;;6.30;;
76023;SDS011;64719;52.124;6.226;2023-06-22T12:02:32;8.60;;;7.25;;
76023;SDS011;64719;52.124;6.226;2023-06-22T12:04:59;9.68;;;6.78;;
76023;SDS011;64719;52.124;6.226;2023-06-22T12:07:25;10.32;;;7.43;;
76023;SDS011;64719;52.124;6.226;2023-06-22T12:09:52;12.02;;;7.78;;
76023;SDS011;64719;52.124;6.226;2023-06-22T12:12:18;13.00;;;8.43;;
76023;SDS011;64719;52.124;6.226;2023-06-22T12:14:45;8.85;;;7.03;;
76023;SDS011;64719;52.124;6.226;2023-06-22T12:17:12;8.57;;;7.10;;
76023;SDS011;64719;52.124;6.226;2023-06-22T12:19:39;9.77;;;7.50;;
76023;SDS011;64719;52.124;6.226;2023-06-22T12:22:06;9.45;;;7.43;;
76023;SDS011;64719;52.124;6.226;2023-06-22T12:24:33;9.00;;;8.02;;
76023;SDS011;64719;52.124;6.226;2023-06-22T12:26:59;10.45;;;7.47;;
76023;SDS011;64719;52.124;6.226;2023-06-22T12:29:28;13.07;;;8.32;;
76023;SDS011;64719;52.124;6.226;2023-06-22T12:31:55;13.45;;;8.65;;
76023;SDS011;64719;52.124;6.226;2023-06-22T12:34:21;12.15;;;9.35;;
76023;SDS011;64719;52.124;6.226;2023-06-22T12:36:49;12.40;;;9.52;;
76023;SDS011;64719;52.124;6.226;2023-06-22T12:39:17;12.25;;;9.65;;
76023;SDS011;64719;52.124;6.226;2023-06-22T12:41:44;13.27;;;10.40;;
76023;SDS011;64719;52.124;6.226;2023-06-22T12:44:10;11.82;;;10.02;;
76023;SDS011;64719;52.124;6.226;2023-06-22T12:46:37;14.13;;;9.73;;
76023;SDS011;64719;52.124;6.226;2023-06-22T12:49:03;12.93;;;10.80;;
76023;SDS011;64719;52.124;6.226;2023-06-22T12:51:30;17.15;;;13.18;;
76023;SDS011;64719;52.124;6.226;2023-06-22T12:53:58;17.63;;;13.88;;
76023;SDS011;64719;52.124;6.226;2023-06-22T12:56:25;19.40;;;14.90;;
76023;SDS011;64719;52.124;6.226;2023-06-22T12:58:51;22.83;;;16.98;;
76023;SDS011;64719;52.124;6.226;2023-06-22T13:01:18;21.95;;;16.48;;
76023;SDS011;64719;52.124;6.226;2023-06-22T13:03:45;22.92;;;15.93;;
76023;SDS011;64719;52.124;6.226;2023-06-22T13:06:11;23.95;;;18.60;;
76023;SDS011;64719;52.124;6.226;2023-06-22T13:08:38;23.70;;;18.08;;
76023;SDS011;64719;52.124;6.226;2023-06-22T13:11:06;26.48;;;19.02;;
76023;SDS011;64719;52.124;6.226;2023-06-22T13:13:32;22.95;;;19.50;;
76023;SDS011;64719;52.124;6.226;2023-06-22T13:16:00;27.40;;;21.67;;
76023;SDS011;64719;52.124;6.226;2023-06-22T13:18:26;28.73;;;19.45;;
76023;SDS011;64719;52.124;6.226;2023-06-22T13:20:53;27.00;;;21.00;;
76023;SDS011;64719;52.124;6.226;2023-06-22T13:23:19;27.05;;;21.70;;
76023;SDS011;64719;52.124;6.226;2023-06-22T13:25:46;26.00;;;20.50;;
76023;SDS011;64719;52.124;6.226;2023-06-22T13:28:14;26.67;;;20.00;;
76023;SDS011;64719;52.124;6.226;2023-06-22T13:30:42;27.80;;;21.63;;
76023;SDS011;64719;52.124;6.226;2023-06-22T13:33:11;28.92;;;21.58;;
76023;SDS011;64719;52.124;6.226;2023-06-22T13:35:37;26.08;;;20.75;;
76023;SDS011;64719;52.124;6.226;2023-06-22T13:38:04;25.27;;;20.15;;
76023;SDS011;64719;52.124;6.226;2023-06-22T13:40:31;23.17;;;20.25;;
76023;SDS011;64719;52.124;6.226;2023-06-22T13:42:58;23.65;;;19.58;;
76023;SDS011;64719;52.124;6.226;2023-06-22T13:45:27;25.65;;;20.30;;
76023;SDS011;64719;52.124;6.226;2023-06-22T13:47:53;26.55;;;19.35;;
76023;SDS011;64719;52.124;6.226;2023-06-22T13:50:20;25.77;;;21.23;;
76023;SDS011;64719;52.124;6.226;2023-06-22T13:52:46;28.48;;;21.33;;
76023;SDS011;64719;52.124;6.226;2023-06-22T13:55:13;27.40;;;22.00;;
76023;SDS011;64719;52.124;6.226;2023-06-22T13:57:40;28.63;;;22.80;;
76023;SDS011;64719;52.124;6.226;2023-06-22T14:00:08;30.02;;;23.73;;
76023;SDS011;64719;52.124;6.226;2023-06-22T14:02:38;27.02;;;21.23;;
76023;SDS011;64719;52.124;6.226;2023-06-22T14:05:06;28.98;;;21.65;;
76023;SDS011;64719;52.124;6.226;2023-06-22T14:07:32;29.05;;;22.83;;
76023;SDS011;64719;52.124;6.226;2023-06-22T14:09:59;28.55;;;22.17;;
76023;SDS011;64719;52.124;6.226;2023-06-22T14:12:26;26.05;;;20.80;;
76023;SDS011;64719;52.124;6.226;2023-06-22T14:14:53;27.88;;;21.08;;
76023;SDS011;64719;52.124;6.226;2023-06-22T14:17:19;24.15;;;19.33;;
76023;SDS011;64719;52.124;6.226;2023-06-22T14:19:50;26.45;;;20.65;;
76023;SDS011;64719;52.124;6.226;2023-06-22T14:22:17;26.17;;;20.83;;
76023;SDS011;64719;52.124;6.226;2023-06-22T14:24:44;24.83;;;19.88;;
76023;SDS011;64719;52.124;6.226;2023-06-22T14:27:10;27.20;;;20.88;;
76023;SDS011;64719;52.124;6.226;2023-06-22T14:29:37;24.58;;;20.52;;
76023;SDS011;64719;52.124;6.226;2023-06-22T14:32:04;24.95;;;20.35;;
76023;SDS011;64719;52.124;6.226;2023-06-22T14:34:31;23.75;;;19.60;;
76023;SDS011;64719;52.124;6.226;2023-06-22T14:37:02;27.45;;;20.98;;
76023;SDS011;64719;52.124;6.226;2023-06-22T14:39:29;27.17;;;18.50;;
76023;SDS011;64719;52.124;6.226;2023-06-22T14:41:55;27.10;;;20.98;;
76023;SDS011;64719;52.124;6.226;2023-06-22T14:44:22;23.92;;;18.58;;
76023;SDS011;64719;52.124;6.226;2023-06-22T14:46:48;22.48;;;17.60;;
76023;SDS011;64719;52.124;6.226;2023-06-22T14:49:15;27.48;;;20.15;;
76023;SDS011;64719;52.124;6.226;2023-06-22T14:51:42;26.70;;;19.33;;